Port Aransas, Texas
Current Conditions -  °F | °C
As of 11:15 AM on Sunday 21 Dec 2014 (Local Time) from KRAS Reporting Station
Overcast Overcast  
Wind Chill: 57°   Ceiling: 1000
Heat Index: 57°   Visibility: 10mi
Dew Point: 53°   Wind: 12mph
Humidity: 88%   Direction: 20°NNE
Pressure: 30.09"   Gusts: NA
Location:  27.83°N, 97.06°W
Report Text: KRAS 211715Z AUTO 02010KT 10SM OVC010 14/12 A3009 RMK AO2 T01370118
Loading
Personal Weather Stations






























Interactive Weather Map New forecast layout! Learn more

10-Day Weather Forecast

Advertisements
Track Severe Weather on mobile